Time;durP1;ratioP1;P1;durP2;ratioP2;P2;SDS_P1;SDS_P2;PMS_P1;PMS_P2;Temp;Humidity;BMP_temperature;BMP_pressure;BME280_temperature;BME280_humidity;BME280_pressure;Samples;Min_cycle;Max_cycle;Signal;HPM_P1;HPM_P2
2023/03/20 00:00:48;;;;;;;10.32;7.97;;;11.20;99.90;;;;;;4186156;28;20021;-71
2023/03/20 00:02:49;;;;;;;12.10;8.90;;;11.30;99.90;;;;;;4188919;28;20040;-70
2023/03/20 00:04:50;;;;;;;13.02;8.63;;;11.30;99.90;;;;;;4192948;28;20036;-70
2023/03/20 00:06:50;;;;;;;13.57;9.35;;;11.20;99.90;;;;;;4188909;28;20410;-70
2023/03/20 00:08:53;;;;;;;12.77;9.25;;;11.20;99.90;;;;;;4189088;28;20095;-70
2023/03/20 00:10:54;;;;;;;9.60;7.43;;;11.20;99.90;;;;;;4195286;28;20036;-71
2023/03/20 00:12:56;;;;;;;12.05;8.20;;;11.20;99.90;;;;;;4192557;28;20064;-70
2023/03/20 00:14:58;;;;;;;12.50;8.18;;;11.20;99.90;;;;;;4191425;28;20025;-70
2023/03/20 00:16:59;;;;;;;9.50;7.23;;;11.20;99.90;;;;;;4191412;28;20432;-70
2023/03/20 00:19:00;;;;;;;12.15;8.13;;;11.20;99.90;;;;;;4192119;28;20025;-70
2023/03/20 00:21:01;;;;;;;12.32;7.63;;;11.20;99.90;;;;;;4192432;28;20034;-70
2023/03/20 00:23:03;;;;;;;10.65;7.57;;;11.20;99.90;;;;;;4192954;28;20125;-70
2023/03/20 00:25:04;;;;;;;9.68;7.07;;;11.10;99.90;;;;;;4186460;28;20044;-71
2023/03/20 00:27:04;;;;;;;9.07;6.63;;;11.10;99.90;;;;;;4192582;28;20078;-70
2023/03/20 00:29:06;;;;;;;9.68;6.43;;;11.10;99.90;;;;;;4193850;28;20033;-70
2023/03/20 00:31:28;;;;;;;10.60;6.50;;;11.10;99.90;;;;;;4194050;28;20032;-70
2023/03/20 00:33:30;;;;;;;9.18;6.32;;;11.10;99.90;;;;;;4184199;28;20044;-70
2023/03/20 00:35:30;;;;;;;8.55;5.88;;;11.10;99.90;;;;;;4192985;28;20845;-70
2023/03/20 00:37:31;;;;;;;7.38;5.72;;;11.10;99.90;;;;;;4192990;28;20040;-70
2023/03/20 00:39:33;;;;;;;8.40;5.90;;;11.10;99.90;;;;;;4195520;28;20033;-70
2023/03/20 00:41:42;;;;;;;8.70;5.85;;;11.10;99.90;;;;;;4195072;28;20391;-71
2023/03/20 00:43:43;;;;;;;10.23;6.30;;;11.10;99.90;;;;;;4191097;28;20037;-70
2023/03/20 00:45:44;;;;;;;8.63;6.15;;;11.10;99.90;;;;;;4192603;28;20532;-70
2023/03/20 00:47:48;;;;;;;10.27;6.80;;;11.10;99.90;;;;;;4190772;28;20041;-70
2023/03/20 00:49:50;;;;;;;9.63;6.82;;;11.20;99.90;;;;;;4193529;28;20037;-70
2023/03/20 00:51:51;;;;;;;9.02;6.53;;;11.10;99.90;;;;;;4188146;28;20108;-70
2023/03/20 00:53:51;;;;;;;10.32;6.00;;;11.10;99.90;;;;;;4193369;28;20082;-70
2023/03/20 00:55:52;;;;;;;7.57;5.78;;;11.20;99.90;;;;;;4193541;28;20376;-70
2023/03/20 00:57:59;;;;;;;9.00;6.68;;;11.20;99.90;;;;;;4193565;28;20028;-70
2023/03/20 01:00:19;;;;;;;9.00;6.13;;;11.10;99.90;;;;;;4192917;28;20060;-70
2023/03/20 01:02:22;;;;;;;8.38;6.28;;;11.20;99.90;;;;;;4188475;28;20391;-69
2023/03/20 01:04:23;;;;;;;;;;;11.10;99.90;;;;;;4190918;28;20107;-70
2023/03/20 01:06:23;;;;;;;9.35;6.82;;;11.10;99.90;;;;;;4192109;28;19921;-70
2023/03/20 01:08:25;;;;;;;10.82;6.85;;;11.10;99.90;;;;;;4193085;28;20033;-70
2023/03/20 01:10:30;;;;;;;10.60;6.65;;;11.10;99.90;;;;;;4192938;28;20039;-71
2023/03/20 01:12:31;;;;;;;8.73;5.97;;;11.10;99.90;;;;;;4187937;28;20036;-70
2023/03/20 01:14:32;;;;;;;9.57;6.32;;;11.10;99.90;;;;;;4194842;28;20134;-70
2023/03/20 01:16:32;;;;;;;9.73;6.72;;;11.10;99.90;;;;;;4187999;28;20029;-71
2023/03/20 01:18:33;;;;;;;8.05;5.65;;;11.10;99.90;;;;;;4194355;28;20029;-70
2023/03/20 01:20:33;;;;;;;8.32;5.57;;;11.10;99.90;;;;;;4192433;28;20028;-70
2023/03/20 01:22:34;;;;;;;7.53;5.72;;;11.10;99.90;;;;;;4194476;28;20025;-70
2023/03/20 01:24:35;;;;;;;7.30;5.53;;;11.10;99.90;;;;;;4189482;28;20035;-70
2023/03/20 01:26:38;;;;;;;9.50;5.57;;;11.10;99.90;;;;;;4191843;28;20036;-70
2023/03/20 01:28:39;;;;;;;7.53;5.57;;;11.10;99.90;;;;;;4192130;28;20364;-71
2023/03/20 01:30:40;;;;;;;7.53;5.40;;;11.10;99.90;;;;;;4188595;28;20039;-69
2023/03/20 01:32:42;;;;;;;8.23;4.80;;;11.10;99.90;;;;;;4190231;28;20029;-70
2023/03/20 01:34:43;;;;;;;8.00;5.50;;;11.10;99.90;;;;;;4193377;28;20492;-70
2023/03/20 01:36:49;;;;;;;8.23;5.80;;;11.10;99.90;;;;;;4192449;28;20102;-70
2023/03/20 01:38:55;;;;;;;9.25;5.95;;;11.00;99.90;;;;;;4190729;28;20391;-69
2023/03/20 01:41:19;;;;;;;10.60;6.15;;;11.00;99.90;;;;;;4188801;28;20487;-70
2023/03/20 01:43:21;;;;;;;8.63;5.75;;;11.10;99.90;;;;;;4190578;28;20468;-69
2023/03/20 01:45:24;;;;;;;;;;;11.10;99.90;;;;;;4189684;28;20029;-70
2023/03/20 01:47:26;;;;;;;9.77;5.68;;;11.10;99.90;;;;;;4191059;28;19908;-70
2023/03/20 01:49:27;;;;;;;6.97;4.73;;;11.10;99.90;;;;;;4182471;28;20024;-70
2023/03/20 01:51:31;;;;;;;7.38;5.28;;;11.10;99.90;;;;;;4192216;28;20112;-70
2023/03/20 01:53:32;;;;;;;8.43;5.43;;;11.10;99.90;;;;;;4191842;28;20025;-70
2023/03/20 01:55:34;;;;;;;8.35;6.00;;;11.20;99.90;;;;;;4172696;28;20063;-70
2023/03/20 01:57:36;;;;;;;6.13;4.50;;;11.10;99.90;;;;;;4190595;28;20539;-70
2023/03/20 01:59:48;;;;;;;6.90;5.13;;;11.20;99.90;;;;;;4194191;28;20025;-70
2023/03/20 02:01:50;;;;;;;7.00;5.13;;;11.20;99.90;;;;;;4190983;28;20048;-69
2023/03/20 02:03:50;;;;;;;7.88;5.22;;;11.20;99.90;;;;;;4186593;28;20041;-70
2023/03/20 02:05:52;;;;;;;10.80;6.22;;;11.10;99.90;;;;;;4190098;28;20519;-70
2023/03/20 02:08:04;;;;;;;7.78;5.25;;;11.10;99.90;;;;;;4188586;28;20048;-70
2023/03/20 02:10:09;;;;;;;10.73;5.80;;;11.10;99.90;;;;;;4193133;28;20060;-72
2023/03/20 02:12:10;;;;;;;7.85;5.68;;;11.10;99.90;;;;;;4192455;28;20502;-67
2023/03/20 02:14:12;;;;;;;6.43;5.22;;;11.00;99.90;;;;;;4182123;28;20029;-70
2023/03/20 02:16:15;;;;;;;8.57;6.30;;;11.00;99.90;;;;;;4190275;28;20395;-70
2023/03/20 02:18:16;;;;;;;7.78;4.97;;;11.00;99.90;;;;;;4192530;28;20043;-70
2023/03/20 02:20:19;;;;;;;6.88;4.93;;;11.00;99.90;;;;;;4191921;28;20028;-70
2023/03/20 02:23:09;;;;;;;7.45;5.25;;;11.00;99.90;;;;;;4191736;28;20028;-70
2023/03/20 02:25:23;;;;;;;5.30;4.25;;;11.00;99.90;;;;;;4188347;28;20094;-70
2023/03/20 02:28:00;;;;;;;8.45;5.63;;;11.00;99.90;;;;;;4189516;28;20108;-70
2023/03/20 02:30:37;;;;;;;6.80;5.03;;;11.00;99.90;;;;;;4204098;27;20389;-65
2023/03/20 02:32:56;;;;;;;8.68;5.85;;;11.00;99.90;;;;;;4187211;28;20131;-65
2023/03/20 02:35:24;;;;;;;9.50;5.60;;;11.00;99.90;;;;;;4188475;28;20403;-64
2023/03/20 02:37:31;;;;;;;7.75;5.43;;;11.00;99.90;;;;;;4192743;28;20032;-65
2023/03/20 02:40:15;;;;;;;9.27;5.85;;;10.90;99.90;;;;;;4170721;28;20026;-65
2023/03/20 02:42:35;;;;;;;8.25;5.88;;;10.90;99.90;;;;;;4144789;28;20044;-65
2023/03/20 02:45:02;;;;;;;6.63;5.18;;;10.90;99.90;;;;;;4188091;28;20555;-65
2023/03/20 02:47:13;;;;;;;9.13;5.93;;;11.00;99.90;;;;;;4189400;28;20386;-65
2023/03/20 02:49:54;;;;;;;7.20;5.05;;;11.00;99.90;;;;;;4192765;28;20124;-65
2023/03/20 02:52:04;;;;;;;8.45;5.85;;;11.00;99.90;;;;;;4185720;28;20120;-65
2023/03/20 02:54:29;;;;;;;9.13;6.05;;;11.00;99.90;;;;;;4187613;28;20033;-64
2023/03/20 02:56:50;;;;;;;9.05;6.25;;;11.00;99.90;;;;;;4187954;28;20043;-65
2023/03/20 02:58:56;;;;;;;10.10;6.13;;;11.00;99.90;;;;;;4188236;28;20033;-65
2023/03/20 03:01:10;;;;;;;9.15;6.13;;;11.00;99.90;;;;;;4187154;28;20037;-65
2023/03/20 03:03:24;;;;;;;11.55;6.30;;;11.00;99.90;;;;;;4189830;28;20037;-67
2023/03/20 03:05:35;;;;;;;7.18;5.28;;;11.00;99.90;;;;;;4185757;28;20041;-65
2023/03/20 03:07:36;;;;;;;8.10;5.63;;;10.90;99.90;;;;;;4187281;28;20059;-64
2023/03/20 03:09:45;;;;;;;8.48;6.13;;;11.00;99.90;;;;;;4188574;28;20044;-65
2023/03/20 03:11:53;;;;;;;7.63;6.05;;;10.90;99.90;;;;;;4186040;28;20028;-65
2023/03/20 03:13:55;;;;;;;9.82;5.88;;;11.00;99.90;;;;;;4188715;28;20041;-65
2023/03/20 03:16:01;;;;;;;;;;;11.00;99.90;;;;;;4187794;28;20029;-65
2023/03/20 03:18:05;;;;;;;9.52;6.22;;;11.00;99.90;;;;;;4193921;28;19927;-65
2023/03/20 03:20:15;;;;;;;10.30;6.70;;;11.00;99.90;;;;;;4186342;28;20037;-65
2023/03/20 03:22:18;;;;;;;8.98;6.13;;;10.90;99.90;;;;;;4188858;28;20122;-65
2023/03/20 03:24:28;;;;;;;9.82;6.90;;;10.90;99.90;;;;;;4185818;28;20035;-65
2023/03/20 03:26:35;;;;;;;9.82;6.78;;;10.90;99.90;;;;;;4193301;28;20036;-65
2023/03/20 03:28:45;;;;;;;9.82;6.43;;;10.80;99.90;;;;;;4192910;28;20041;-65
2023/03/20 03:30:46;;;;;;;10.25;6.75;;;10.80;99.90;;;;;;4186562;28;20039;-64
2023/03/20 03:32:57;;;;;;;9.15;6.60;;;10.80;99.90;;;;;;4186855;28;20039;-65
2023/03/20 03:34:59;;;;;;;10.75;7.18;;;10.80;99.90;;;;;;4189395;28;20037;-65
2023/03/20 03:37:06;;;;;;;12.15;7.78;;;10.80;99.90;;;;;;4188766;28;20102;-65
2023/03/20 03:39:29;;;;;;;10.88;7.88;;;10.70;99.90;;;;;;4189331;27;20025;-65
2023/03/20 03:41:53;;;;;;;10.63;7.03;;;10.70;99.90;;;;;;4176545;28;20060;-65
2023/03/20 03:44:12;;;;;;;11.65;7.82;;;10.70;99.90;;;;;;4176433;28;20052;-65
2023/03/20 03:46:38;;;;;;;13.23;8.80;;;10.60;99.90;;;;;;4178437;28;20044;-66
2023/03/20 03:48:51;;;;;;;12.50;8.35;;;10.60;99.90;;;;;;4208849;28;20458;-68
2023/03/20 03:51:04;;;;;;;;;;;10.50;99.90;;;;;;4176905;28;20112;-67
2023/03/20 03:53:09;;;;;;;;;;;10.60;99.90;;;;;;4179077;28;19978;-67
2023/03/20 03:55:20;;;;;;;12.95;8.00;;;10.50;99.90;;;;;;4177055;28;19908;-67
2023/03/20 03:57:44;;;;;;;14.50;8.82;;;10.50;99.90;;;;;;4207981;28;20028;-68
2023/03/20 03:59:49;;;;;;;13.73;8.85;;;10.50;99.90;;;;;;4162580;28;20120;-65
2023/03/20 04:01:51;;;;;;;16.50;9.73;;;10.50;99.90;;;;;;4172874;28;20055;-65
2023/03/20 04:03:56;;;;;;;18.02;9.68;;;10.50;99.90;;;;;;4175571;28;20037;-65
2023/03/20 04:05:58;;;;;;;13.68;8.93;;;10.50;99.90;;;;;;4177053;28;20102;-65
2023/03/20 04:08:02;;;;;;;12.57;8.55;;;10.50;99.90;;;;;;4179983;28;20155;-65
2023/03/20 04:10:03;;;;;;;13.38;8.85;;;10.50;99.90;;;;;;4176740;28;20040;-65
2023/03/20 04:12:04;;;;;;;12.15;8.95;;;10.50;99.90;;;;;;4177003;28;20053;-65
2023/03/20 04:14:05;;;;;;;14.95;9.00;;;10.40;99.90;;;;;;4176848;28;20116;-65
2023/03/20 04:16:10;;;;;;;15.40;10.02;;;10.50;99.90;;;;;;4176164;28;20509;-65
2023/03/20 04:18:17;;;;;;;14.70;9.30;;;10.50;99.90;;;;;;4178952;28;20041;-65
2023/03/20 04:20:17;;;;;;;14.30;9.32;;;10.40;99.90;;;;;;4175222;28;20555;-65
2023/03/20 04:22:18;;;;;;;15.63;10.55;;;10.40;99.90;;;;;;4176138;28;20033;-65
2023/03/20 04:24:18;;;;;;;15.55;9.30;;;10.50;99.90;;;;;;4177340;28;20048;-65
2023/03/20 04:26:20;;;;;;;15.13;9.98;;;10.40;99.90;;;;;;4179043;28;20079;-65
2023/03/20 04:28:20;;;;;;;15.50;10.18;;;10.50;99.90;;;;;;4178649;28;20040;-67
2023/03/20 04:30:21;;;;;;;14.85;10.32;;;10.40;99.90;;;;;;4177732;28;20025;-66
2023/03/20 04:32:22;;;;;;;20.48;11.85;;;10.40;99.90;;;;;;4185317;28;20041;-65
2023/03/20 04:34:23;;;;;;;17.00;11.30;;;10.40;99.90;;;;;;4177472;28;20029;-64
2023/03/20 04:36:24;;;;;;;18.88;12.35;;;10.40;99.90;;;;;;4176801;28;20071;-65
2023/03/20 04:38:24;;;;;;;19.70;12.43;;;10.40;99.90;;;;;;4180061;28;20405;-65
2023/03/20 04:40:26;;;;;;;17.38;11.15;;;10.30;99.90;;;;;;4176421;28;20044;-65
2023/03/20 04:42:26;;;;;;;26.90;13.00;;;10.30;99.90;;;;;;4176043;28;20029;-65
2023/03/20 04:44:27;;;;;;;18.70;12.40;;;10.30;99.90;;;;;;4177463;28;20394;-65
2023/03/20 04:46:27;;;;;;;22.33;13.82;;;10.30;99.90;;;;;;4178678;28;20033;-65
2023/03/20 04:48:28;;;;;;;19.80;12.70;;;10.30;99.90;;;;;;4176910;28;20033;-65
2023/03/20 04:50:29;;;;;;;24.48;14.40;;;10.20;99.90;;;;;;4174291;28;20133;-65
2023/03/20 04:52:30;;;;;;;22.92;14.30;;;10.20;99.90;;;;;;4175170;28;20457;-65
2023/03/20 04:54:30;;;;;;;18.73;11.60;;;10.10;99.90;;;;;;4176437;28;20032;-65
2023/03/20 04:56:31;;;;;;;20.88;13.18;;;10.10;99.90;;;;;;4175585;28;20502;-65
2023/03/20 04:58:32;;;;;;;20.27;11.57;;;10.10;99.90;;;;;;4188665;28;20029;-65
2023/03/20 05:00:33;;;;;;;18.80;12.18;;;10.10;99.90;;;;;;4184252;28;20055;-65
2023/03/20 05:02:33;;;;;;;24.17;12.18;;;10.10;99.90;;;;;;4175073;28;20116;-65
2023/03/20 05:04:34;;;;;;;18.95;11.93;;;10.10;99.90;;;;;;4175608;28;20041;-65
2023/03/20 05:06:35;;;;;;;19.55;11.55;;;10.10;99.90;;;;;;4174064;28;20033;-65
2023/03/20 05:08:36;;;;;;;20.17;12.27;;;10.00;99.90;;;;;;4176748;28;20405;-65
2023/03/20 05:10:37;;;;;;;20.48;12.55;;;9.90;99.90;;;;;;4176139;28;20552;-64
2023/03/20 05:12:37;;;;;;;20.73;11.20;;;9.90;99.90;;;;;;4176871;28;20033;-65
2023/03/20 05:14:38;;;;;;;23.40;11.48;;;9.90;99.90;;;;;;4159874;28;20029;-65
2023/03/20 05:16:39;;;;;;;18.58;11.15;;;9.90;99.90;;;;;;4179578;28;20040;-64
2023/03/20 05:18:39;;;;;;;18.20;11.27;;;9.80;99.90;;;;;;4176244;28;20545;-64
2023/03/20 05:20:40;;;;;;;17.48;10.10;;;9.80;99.90;;;;;;4174871;28;20037;-65
2023/03/20 05:22:41;;;;;;;19.25;9.88;;;9.70;99.90;;;;;;4176277;28;20120;-65
2023/03/20 05:24:41;;;;;;;16.48;9.57;;;9.70;99.90;;;;;;4173930;28;20087;-65
2023/03/20 05:26:42;;;;;;;15.38;8.98;;;9.70;99.90;;;;;;4175083;28;20474;-65
2023/03/20 05:28:43;;;;;;;18.27;10.07;;;9.60;99.90;;;;;;4178657;28;20053;-65
2023/03/20 05:30:43;;;;;;;14.68;8.70;;;9.70;99.90;;;;;;4174825;28;20037;-65
2023/03/20 05:32:44;;;;;;;14.50;9.10;;;9.60;99.90;;;;;;4175136;28;20371;-65
2023/03/20 05:34:45;;;;;;;14.43;8.45;;;9.60;99.90;;;;;;4176044;28;20465;-65
2023/03/20 05:36:46;;;;;;;11.13;6.63;;;9.60;99.90;;;;;;4174992;28;20036;-65
2023/03/20 05:38:46;;;;;;;14.65;7.72;;;9.60;99.90;;;;;;4174138;28;20029;-65
2023/03/20 05:40:48;;;;;;;11.65;7.07;;;9.60;99.90;;;;;;4175442;28;20394;-65
2023/03/20 05:42:50;;;;;;;12.57;7.28;;;9.60;99.90;;;;;;4176324;28;20529;-65
2023/03/20 05:44:50;;;;;;;11.50;7.35;;;9.60;99.90;;;;;;4176104;28;20094;-65
2023/03/20 05:46:51;;;;;;;12.73;7.78;;;9.60;99.90;;;;;;4171640;28;20040;-67
2023/03/20 05:48:51;;;;;;;14.35;7.93;;;9.60;99.90;;;;;;4201493;28;20032;-65
2023/03/20 05:50:52;;;;;;;12.35;7.25;;;9.60;99.90;;;;;;4174189;28;20031;-65
2023/03/20 05:52:52;;;;;;;12.68;7.55;;;9.50;99.90;;;;;;4192610;28;20583;-65
2023/03/20 05:54:53;;;;;;;11.80;7.47;;;9.50;99.90;;;;;;4178313;28;20036;-64
2023/03/20 05:56:54;;;;;;;11.00;6.68;;;9.50;99.90;;;;;;4172639;28;20033;-64
2023/03/20 05:58:54;;;;;;;11.48;7.63;;;9.50;99.90;;;;;;4180613;28;20091;-64
2023/03/20 06:00:56;;;;;;;13.02;7.20;;;9.50;99.90;;;;;;4174413;28;20042;-64
2023/03/20 06:02:57;;;;;;;10.38;6.88;;;9.50;99.90;;;;;;4176849;28;20406;-64
2023/03/20 06:04:58;;;;;;;11.60;6.82;;;9.40;99.90;;;;;;4175888;28;20029;-64
2023/03/20 06:06:58;;;;;;;9.88;6.32;;;9.50;99.90;;;;;;4182114;28;20042;-64
2023/03/20 06:08:59;;;;;;;12.68;6.80;;;9.50;99.90;;;;;;4174529;28;20037;-64
2023/03/20 06:10:59;;;;;;;11.95;7.32;;;9.50;99.90;;;;;;4175969;28;20064;-64
2023/03/20 06:13:00;;;;;;;12.63;6.63;;;9.50;99.90;;;;;;4171963;28;20033;-64
2023/03/20 06:15:01;;;;;;;14.82;7.15;;;9.50;99.90;;;;;;4170374;28;20063;-64
2023/03/20 06:17:02;;;;;;;16.02;7.50;;;9.50;99.90;;;;;;4168823;28;20041;-64
2023/03/20 06:19:02;;;;;;;11.25;7.10;;;9.40;99.90;;;;;;4172755;28;20498;-64
2023/03/20 06:21:04;;;;;;;11.13;6.85;;;9.40;99.90;;;;;;4169798;28;24685;-64
2023/03/20 06:23:05;;;;;;;10.25;6.30;;;9.40;99.90;;;;;;4164229;28;20063;-63
2023/03/20 06:25:06;;;;;;;10.60;6.82;;;9.40;99.90;;;;;;4168260;28;20561;-64
2023/03/20 06:27:06;;;;;;;11.77;6.78;;;9.40;99.90;;;;;;4170502;28;20040;-64
2023/03/20 06:29:07;;;;;;;11.25;6.82;;;9.30;99.90;;;;;;4171607;28;20053;-64
2023/03/20 06:31:11;;;;;;;14.02;7.40;;;9.40;99.90;;;;;;4169787;28;20048;-63
2023/03/20 06:33:11;;;;;;;12.77;6.78;;;9.40;99.90;;;;;;4169693;28;20041;-64
2023/03/20 06:35:13;;;;;;;10.80;6.10;;;9.30;99.90;;;;;;4171666;28;20490;-64
2023/03/20 06:37:13;;;;;;;9.40;6.15;;;9.30;99.90;;;;;;4172389;28;21170;-64
2023/03/20 06:39:14;;;;;;;12.00;6.55;;;9.30;99.90;;;;;;4171442;28;20047;-64
2023/03/20 06:41:15;;;;;;;12.93;6.60;;;9.30;99.90;;;;;;4171235;28;20648;-64
2023/03/20 06:43:16;;;;;;;13.15;5.78;;;9.30;99.90;;;;;;4171885;28;20040;-64
2023/03/20 06:45:16;;;;;;;11.52;6.75;;;9.40;99.90;;;;;;4169898;28;20087;-64
2023/03/20 06:47:17;;;;;;;11.20;6.28;;;9.40;99.90;;;;;;4169004;28;20045;-64
2023/03/20 06:49:18;;;;;;;9.50;6.00;;;9.40;99.90;;;;;;4168883;28;20485;-64
2023/03/20 06:51:18;;;;;;;10.85;6.15;;;9.40;99.90;;;;;;4171007;28;20440;-64
2023/03/20 06:53:19;;;;;;;8.18;5.75;;;9.40;99.90;;;;;;4169273;28;20029;-63
2023/03/20 06:55:20;;;;;;;10.68;5.55;;;9.50;99.90;;;;;;4170771;28;20033;-64
2023/03/20 06:57:21;;;;;;;11.77;6.68;;;9.50;99.90;;;;;;4170383;28;20064;-64
2023/03/20 06:59:22;;;;;;;10.23;6.05;;;9.50;99.90;;;;;;4171056;28;20036;-64
2023/03/20 07:01:23;;;;;;;11.20;5.95;;;9.50;99.90;;;;;;4167735;28;20055;-66
2023/03/20 07:03:23;;;;;;;9.98;6.55;;;9.50;99.90;;;;;;4166622;28;20498;-63
2023/03/20 07:05:24;;;;;;;10.80;6.65;;;9.50;99.90;;;;;;4170927;28;20509;-64
2023/03/20 07:07:25;;;;;;;13.90;7.40;;;9.60;99.90;;;;;;4169390;28;20048;-64
2023/03/20 07:09:26;;;;;;;14.10;7.35;;;9.60;99.90;;;;;;4171504;28;20037;-64
2023/03/20 07:11:27;;;;;;;15.38;7.43;;;9.60;99.90;;;;;;4170469;28;20037;-64
2023/03/20 07:13:28;;;;;;;13.55;7.53;;;9.50;99.90;;;;;;4167005;28;20041;-64
2023/03/20 07:15:29;;;;;;;15.18;7.53;;;9.60;99.90;;;;;;4153903;28;20109;-64
2023/03/20 07:17:30;;;;;;;14.73;7.90;;;9.60;99.90;;;;;;4176217;28;20509;-64
2023/03/20 07:19:30;;;;;;;13.52;8.23;;;9.60;99.90;;;;;;4176135;28;20048;-64
2023/03/20 07:21:31;;;;;;;13.05;8.48;;;9.60;99.90;;;;;;4175616;28;20033;-64
2023/03/20 07:23:36;;;;;;;18.02;8.48;;;9.60;99.90;;;;;;4173296;28;20672;-64
2023/03/20 07:25:37;;;;;;;14.90;8.32;;;9.60;99.90;;;;;;4173773;28;20116;-64
2023/03/20 07:27:38;;;;;;;15.63;8.45;;;9.60;99.90;;;;;;4172736;28;20057;-64
2023/03/20 07:29:39;;;;;;;14.27;7.85;;;9.60;99.90;;;;;;4171853;28;20072;-64
2023/03/20 07:31:39;;;;;;;14.35;8.18;;;9.60;99.90;;;;;;4172923;28;20458;-64
2023/03/20 07:33:40;;;;;;;11.60;7.68;;;9.70;99.90;;;;;;4172587;28;20510;-64
2023/03/20 07:35:41;;;;;;;14.63;8.75;;;9.70;99.90;;;;;;4155825;28;20038;-63
2023/03/20 07:37:42;;;;;;;15.90;8.25;;;9.70;99.90;;;;;;4173698;28;21796;-64
2023/03/20 07:39:42;;;;;;;13.05;7.88;;;9.70;99.90;;;;;;4173762;28;20033;-63
2023/03/20 07:41:43;;;;;;;17.05;8.60;;;9.60;99.90;;;;;;4173134;28;20021;-64
2023/03/20 07:43:43;;;;;;;15.90;8.02;;;9.70;99.90;;;;;;4173457;28;20037;-63
2023/03/20 07:45:44;;;;;;;18.00;9.23;;;9.70;99.90;;;;;;4171402;28;20040;-63
2023/03/20 07:47:47;;;;;;;18.17;8.85;;;9.70;99.90;;;;;;4173147;28;20087;-64
2023/03/20 07:49:47;;;;;;;;;;;9.70;99.90;;;;;;4173145;28;20045;-64
2023/03/20 07:51:49;;;;;;;17.90;8.40;;;9.70;99.90;;;;;;4171002;28;19960;-63
2023/03/20 07:53:50;;;;;;;16.70;7.80;;;9.70;99.90;;;;;;4170001;28;20044;-64
2023/03/20 07:55:51;;;;;;;16.63;8.05;;;9.60;99.90;;;;;;4172952;28;20760;-64
2023/03/20 07:57:51;;;;;;;17.60;7.43;;;9.60;99.90;;;;;;4174743;28;20033;-63
2023/03/20 07:59:52;;;;;;;15.95;7.60;;;9.70;99.90;;;;;;4173566;28;20103;-63
2023/03/20 08:01:52;;;;;;;14.20;6.93;;;9.70;99.90;;;;;;4168068;28;20177;-63
2023/03/20 08:03:53;;;;;;;25.58;12.23;;;9.80;99.90;;;;;;4173877;28;20485;-63
2023/03/20 08:05:54;;;;;;;28.35;15.25;;;9.90;99.90;;;;;;4173507;28;20057;-64
2023/03/20 08:07:55;;;;;;;35.13;20.13;;;9.90;99.90;;;;;;4204241;28;20036;-64
2023/03/20 08:09:55;;;;;;;31.88;17.92;;;10.00;99.90;;;;;;4170471;28;20445;-65
2023/03/20 08:11:56;;;;;;;17.83;10.30;;;10.10;99.90;;;;;;4173903;28;20044;-64
2023/03/20 08:13:56;;;;;;;20.08;9.23;;;10.20;99.90;;;;;;4173065;28;20033;-64
2023/03/20 08:15:57;;;;;;;16.15;8.25;;;10.20;99.90;;;;;;4170843;28;20075;-64
2023/03/20 08:17:58;;;;;;;14.90;6.55;;;10.20;99.90;;;;;;4172388;28;20506;-64
2023/03/20 08:19:58;;;;;;;11.80;6.78;;;10.20;99.90;;;;;;4172360;28;20472;-63
2023/03/20 08:21:59;;;;;;;10.70;6.57;;;10.30;99.90;;;;;;4171920;28;20433;-64
2023/03/20 08:24:00;;;;;;;12.35;6.68;;;10.30;99.90;;;;;;4169281;28;20052;-63
2023/03/20 08:26:00;;;;;;;13.25;7.15;;;10.30;99.90;;;;;;4162948;28;20091;-64
2023/03/20 08:28:01;;;;;;;11.95;6.93;;;10.40;99.90;;;;;;4162896;28;20041;-64
2023/03/20 08:30:06;;;;;;;9.85;5.93;;;10.40;99.90;;;;;;4160834;28;20458;-64
2023/03/20 08:32:07;;;;;;;12.43;5.97;;;10.30;99.90;;;;;;4162973;28;20043;-64
2023/03/20 08:34:07;;;;;;;9.60;5.30;;;10.40;99.90;;;;;;4159862;28;20051;-63
2023/03/20 08:36:08;;;;;;;11.57;5.90;;;10.40;99.90;;;;;;4160972;28;20041;-63
2023/03/20 08:38:12;;;;;;;15.60;5.38;;;10.30;99.90;;;;;;4161715;28;20055;-63
2023/03/20 08:40:12;;;;;;;25.23;13.27;;;10.30;99.90;;;;;;4174918;28;20255;-64
2023/03/20 08:42:14;;;;;;;28.17;16.60;;;10.30;99.90;;;;;;4163494;28;20048;-63
2023/03/20 08:44:15;;;;;;;45.40;23.88;;;10.30;99.90;;;;;;4165953;28;20041;-63
2023/03/20 08:46:16;;;;;;;23.70;12.07;;;10.30;99.90;;;;;;4172641;28;20529;-63
2023/03/20 08:48:17;;;;;;;15.90;8.63;;;10.40;99.90;;;;;;4174131;28;20063;-63
2023/03/20 08:50:17;;;;;;;12.02;5.88;;;10.20;99.90;;;;;;4170556;28;20041;-64
2023/03/20 08:52:18;;;;;;;13.65;5.82;;;10.20;99.90;;;;;;4174025;28;20037;-64
2023/03/20 08:54:19;;;;;;;13.52;6.10;;;10.20;99.90;;;;;;4173212;28;20033;-64
2023/03/20 08:56:19;;;;;;;12.95;5.72;;;10.30;99.90;;;;;;4169676;28;20037;-63
2023/03/20 08:58:21;;;;;;;12.90;5.30;;;10.30;99.90;;;;;;4173767;28;20037;-63
2023/03/20 09:00:23;;;;;;;8.07;4.93;;;10.30;99.90;;;;;;4171435;28;20102;-63
2023/03/20 09:02:23;;;;;;;8.20;4.50;;;10.30;99.90;;;;;;4173984;28;20057;-63
2023/03/20 09:04:24;;;;;;;10.38;4.40;;;10.40;99.90;;;;;;4173254;28;20402;-64
2023/03/20 09:06:25;;;;;;;6.93;3.95;;;10.40;99.90;;;;;;4171813;28;20040;-63
2023/03/20 09:08:25;;;;;;;10.95;4.32;;;10.40;99.90;;;;;;4172911;28;20398;-64
2023/03/20 09:10:26;;;;;;;9.55;4.00;;;10.40;99.90;;;;;;4171926;28;20037;-64
2023/03/20 09:12:27;;;;;;;9.13;4.13;;;10.40;99.90;;;;;;4167746;28;20041;-64
2023/03/20 09:14:28;;;;;;;7.70;3.55;;;10.40;99.90;;;;;;4161506;28;20445;-64
2023/03/20 09:16:29;;;;;;;8.95;3.97;;;10.40;99.90;;;;;;4159431;28;20410;-64
2023/03/20 09:18:30;;;;;;;7.38;3.78;;;10.40;99.90;;;;;;4161472;28;20039;-64
2023/03/20 09:20:30;;;;;;;10.68;4.10;;;10.40;99.90;;;;;;4161436;28;20037;-64
2023/03/20 09:22:32;;;;;;;9.18;3.90;;;10.40;99.90;;;;;;4161367;28;20032;-63
2023/03/20 09:24:32;;;;;;;8.07;4.15;;;10.40;99.90;;;;;;4161567;28;20037;-63
2023/03/20 09:26:33;;;;;;;7.15;4.00;;;10.50;99.90;;;;;;4162923;28;21015;-64
2023/03/20 09:28:34;;;;;;;19.92;9.73;;;10.50;99.90;;;;;;4161492;28;20509;-63
2023/03/20 09:30:35;;;;;;;12.18;6.10;;;10.40;99.90;;;;;;4158572;28;20398;-63
2023/03/20 09:32:36;;;;;;;9.82;4.55;;;10.40;99.90;;;;;;4159403;28;20624;-63
2023/03/20 09:34:37;;;;;;;11.55;4.65;;;10.40;99.90;;;;;;4160725;28;20058;-63
2023/03/20 09:36:37;;;;;;;10.98;4.80;;;10.50;99.90;;;;;;4159965;28;20379;-64
2023/03/20 09:38:40;;;;;;;7.00;3.88;;;10.50;99.90;;;;;;4160223;28;20041;-63
2023/03/20 09:40:52;;;;;;;7.60;3.90;;;10.60;99.90;;;;;;4144325;28;20033;-64
2023/03/20 09:43:18;;;;;;;9.48;4.30;;;10.50;99.90;;;;;;4161089;28;20036;-64
2023/03/20 09:45:43;;;;;;;5.68;3.17;;;10.50;99.90;;;;;;4157117;28;20047;-64
2023/03/20 09:47:49;;;;;;;6.57;3.00;;;10.50;99.90;;;;;;4161322;28;20033;-64
2023/03/20 09:50:04;;;;;;;9.43;3.65;;;10.60;99.90;;;;;;4160405;28;20044;-70
2023/03/20 09:52:33;;;;;;;9.73;3.95;;;10.70;99.90;;;;;;4159842;28;20037;-64
2023/03/20 09:54:40;;;;;;;9.38;3.35;;;10.50;99.90;;;;;;4155242;28;20175;-64
2023/03/20 09:56:41;;;;;;;4.65;2.60;;;10.60;99.90;;;;;;4160281;28;20848;-64
2023/03/20 09:58:52;;;;;;;7.88;3.25;;;10.60;99.90;;;;;;4160419;28;20499;-63
2023/03/20 10:00:57;;;;;;;5.95;3.00;;;10.60;99.90;;;;;;4159392;28;20521;-64
2023/03/20 10:03:00;;;;;;;8.52;3.00;;;10.60;99.90;;;;;;4160611;28;20095;-64
2023/03/20 10:05:03;;;;;;;6.05;2.90;;;10.60;99.90;;;;;;4160702;28;20036;-64
2023/03/20 10:07:05;;;;;;;10.45;3.30;;;10.60;99.90;;;;;;4161915;28;20478;-64
2023/03/20 10:09:27;;;;;;;9.55;4.47;;;10.60;99.90;;;;;;4161638;28;20066;-64
2023/03/20 10:11:40;;;;;;;9.95;3.40;;;10.60;99.90;;;;;;4157008;28;20041;-64
2023/03/20 10:14:01;;;;;;;9.55;3.40;;;10.60;99.90;;;;;;4170276;28;20126;-63
2023/03/20 10:16:41;;;;;;;8.40;3.40;;;10.60;99.90;;;;;;4168647;28;20029;-64
2023/03/20 10:18:56;;;;;;;10.63;3.67;;;10.70;99.90;;;;;;4173068;28;20067;-64
2023/03/20 10:21:17;;;;;;;7.63;3.22;;;10.70;99.90;;;;;;4173695;28;20048;-69
2023/03/20 10:23:46;;;;;;;8.50;2.63;;;10.70;99.90;;;;;;4171658;28;20067;-64
2023/03/20 10:26:01;;;;;;;8.20;3.20;;;10.70;99.90;;;;;;4164363;28;20032;-64
2023/03/20 10:28:18;;;;;;;7.50;3.40;;;10.80;99.90;;;;;;4173615;28;20032;-64
2023/03/20 10:30:26;;;;;;;9.02;3.35;;;10.90;99.90;;;;;;4170009;28;20048;-64
2023/03/20 10:32:31;;;;;;;7.65;3.47;;;10.80;99.90;;;;;;4170587;28;20036;-64
2023/03/20 10:34:50;;;;;;;7.85;3.40;;;10.80;99.90;;;;;;4169768;28;20048;-64
2023/03/20 10:37:00;;;;;;;11.00;3.58;;;10.70;99.90;;;;;;4175164;28;20064;-64
2023/03/20 10:39:08;;;;;;;9.98;3.15;;;10.80;99.90;;;;;;4201638;28;20078;-64
2023/03/20 10:41:15;;;;;;;9.52;3.80;;;10.70;99.90;;;;;;4171569;28;20410;-64
2023/03/20 10:43:20;;;;;;;7.88;2.97;;;10.60;99.90;;;;;;4172500;28;20080;-64
2023/03/20 10:45:39;;;;;;;9.05;3.28;;;10.60;99.90;;;;;;4171949;28;20037;-64